Time;durP1;ratioP1;P1;durP2;ratioP2;P2;SDS_P1;SDS_P2;PMS_P1;PMS_P2;Temp;Humidity;BMP_temperature;BMP_pressure;BME280_temperature;BME280_humidity;BME280_pressure;Samples;Min_cycle;Max_cycle;Signal;HPM_P1;HPM_P2
2022/02/07 00:00:13;;;;;;;14.07;1.45;;;;;;;;;;5009808;28;20053;-68
2022/02/07 00:03:06;;;;;;;11.10;1.90;;;;;;;;;;5020895;28;20490;-68
2022/02/07 00:05:28;;;;;;;20.63;2.05;;;;;;;;;;5015664;28;20945;-67
2022/02/07 00:07:56;;;;;;;9.15;1.50;;;;;;;;;;5018194;28;20704;-67
2022/02/07 00:10:22;;;;;;;14.27;2.25;;;;;;;;;;5017831;28;20057;-67
2022/02/07 00:12:49;;;;;;;12.32;1.58;;;;;;;;;;5014990;28;20053;-68
2022/02/07 00:15:16;;;;;;;16.95;2.05;;;;;;;;;;5039492;28;20052;-68
2022/02/07 00:17:42;;;;;;;10.85;1.65;;;;;;;;;;5032594;28;20053;-67
2022/02/07 00:20:15;;;;;;;12.38;1.88;;;;;;;;;;5041284;28;20454;-67
2022/02/07 00:22:42;;;;;;;14.90;1.85;;;;;;;;;;5027826;28;20502;-67
2022/02/07 00:25:09;;;;;;;17.15;2.60;;;;;;;;;;5032969;28;20828;-68
2022/02/07 00:27:35;;;;;;;12.25;1.83;;;;;;;;;;5043707;28;20560;-68
2022/02/07 00:30:03;;;;;;;11.90;1.67;;;;;;;;;;5021343;28;20049;-68
2022/02/07 00:32:29;;;;;;;10.20;1.53;;;;;;;;;;5021666;28;20060;-68
2022/02/07 00:34:56;;;;;;;5.18;0.80;;;;;;;;;;5012003;28;20287;-68
2022/02/07 00:37:28;;;;;;;11.38;1.33;;;;;;;;;;5039706;28;20052;-68
2022/02/07 00:40:14;;;;;;;9.52;1.33;;;;;;;;;;5017656;28;20486;-68
2022/02/07 00:42:52;;;;;;;9.35;1.10;;;;;;;;;;5021122;28;20067;-68
2022/02/07 00:45:42;;;;;;;7.90;1.10;;;;;;;;;;5010684;28;20045;-68
2022/02/07 00:48:09;;;;;;;6.88;0.90;;;;;;;;;;5022374;28;20045;-67
2022/02/07 00:50:37;;;;;;;9.98;1.33;;;;;;;;;;5033143;28;20053;-67
2022/02/07 00:53:03;;;;;;;5.28;0.80;;;;;;;;;;5012832;28;20294;-67
2022/02/07 00:55:30;;;;;;;6.90;0.88;;;;;;;;;;5021187;28;20045;-67
2022/02/07 00:57:56;;;;;;;6.28;1.23;;;;;;;;;;5012254;28;20053;-67
2022/02/07 01:00:22;;;;;;;7.50;1.20;;;;;;;;;;5015906;28;20049;-67
2022/02/07 01:02:49;;;;;;;7.15;0.85;;;;;;;;;;5007663;28;20082;-67
2022/02/07 01:05:16;;;;;;;9.10;1.02;;;;;;;;;;5020194;28;20501;-67
2022/02/07 01:07:46;;;;;;;11.80;1.73;;;;;;;;;;5020319;28;20049;-67
2022/02/07 01:10:15;;;;;;;13.15;1.33;;;;;;;;;;5012364;28;20577;-67
2022/02/07 01:13:01;;;;;;;6.55;1.30;;;;;;;;;;5020373;28;20056;-67
2022/02/07 01:24:01;;;;;;;14.30;1.98;;;;;;;;;;5021021;28;20170;-67
2022/02/07 01:51:33;;;;;;;21.58;2.08;;;;;;;;;;5001326;28;20566;-66
2022/02/07 01:54:30;;;;;;;11.50;1.65;;;;;;;;;;5014690;28;20057;-66
2022/02/07 01:56:57;;;;;;;11.15;2.05;;;;;;;;;;5003659;28;20049;-66
2022/02/07 01:59:23;;;;;;;16.77;2.08;;;;;;;;;;4993812;28;20053;-66
2022/02/07 02:01:49;;;;;;;14.73;1.40;;;;;;;;;;5010294;28;20052;-67
2022/02/07 02:04:15;;;;;;;15.40;1.92;;;;;;;;;;5015347;28;20447;-66
2022/02/07 02:06:43;;;;;;;18.75;2.70;;;;;;;;;;5010759;28;20053;-66
2022/02/07 02:09:11;;;;;;;9.00;1.17;;;;;;;;;;5018270;28;20053;-66
2022/02/07 02:11:39;;;;;;;20.73;2.35;;;;;;;;;;4993049;28;20291;-66
2022/02/07 02:38:27;;;;;;;14.23;1.83;;;;;;;;;;5017726;28;20430;-66
2022/02/07 02:46:26;;;;;;;25.58;2.97;;;;;;;;;;5011538;28;20069;-67
2022/02/07 02:49:00;;;;;;;16.75;2.03;;;;;;;;;;5006618;28;20343;-66
2022/02/07 02:51:26;;;;;;;15.20;2.05;;;;;;;;;;5018224;28;20056;-66
2022/02/07 02:53:53;;;;;;;24.95;2.63;;;;;;;;;;5009656;28;20050;-66
2022/02/07 02:56:22;;;;;;;22.55;2.15;;;;;;;;;;5022188;28;20050;-66
2022/02/07 02:58:48;;;;;;;19.73;2.25;;;;;;;;;;5014532;28;20049;-66
2022/02/07 03:01:15;;;;;;;22.92;3.08;;;;;;;;;;5022415;28;20498;-66
2022/02/07 03:03:41;;;;;;;18.10;2.40;;;;;;;;;;5022782;28;20049;-66
2022/02/07 03:06:09;;;;;;;20.45;2.45;;;;;;;;;;5008564;28;20322;-66
2022/02/07 03:08:36;;;;;;;20.75;2.72;;;;;;;;;;5018562;28;20049;-66
2022/02/07 03:18:40;;;;;;;23.10;2.40;;;;;;;;;;5018829;28;20073;-66
2022/02/07 03:21:06;;;;;;;22.73;3.08;;;;;;;;;;5011629;28;20132;-66
2022/02/07 03:23:33;;;;;;;16.92;2.65;;;;;;;;;;5019674;28;20611;-66
2022/02/07 03:25:59;;;;;;;15.90;1.80;;;;;;;;;;5021297;28;20049;-66
2022/02/07 03:28:27;;;;;;;13.68;2.58;;;;;;;;;;5013396;28;20049;-66
2022/02/07 03:30:53;;;;;;;23.83;2.33;;;;;;;;;;5020843;28;20053;-66
2022/02/07 03:33:20;;;;;;;17.05;1.98;;;;;;;;;;5009021;28;20053;-66
2022/02/07 03:35:47;;;;;;;23.85;2.08;;;;;;;;;;5016205;28;20059;-65
2022/02/07 03:38:13;;;;;;;21.27;2.30;;;;;;;;;;5021134;28;20060;-66
2022/02/07 03:40:39;;;;;;;17.38;2.88;;;;;;;;;;5012759;28;20046;-66
2022/02/07 03:43:06;;;;;;;9.55;2.00;;;;;;;;;;5021534;28;20052;-66
2022/02/07 03:45:33;;;;;;;16.75;2.00;;;;;;;;;;5013312;28;20053;-65
2022/02/07 03:48:00;;;;;;;18.92;2.63;;;;;;;;;;5016351;28;20345;-65
2022/02/07 03:50:31;;;;;;;17.70;2.03;;;;;;;;;;5009277;28;20053;-65
2022/02/07 03:52:57;;;;;;;14.00;1.73;;;;;;;;;;5020904;28;20293;-66
2022/02/07 03:55:24;;;;;;;12.32;2.22;;;;;;;;;;5021253;28;20491;-66
2022/02/07 03:57:50;;;;;;;15.52;2.38;;;;;;;;;;5011391;28;20051;-66
2022/02/07 04:00:16;;;;;;;13.50;1.92;;;;;;;;;;5016638;28;20073;-65
2022/02/07 04:02:48;;;;;;;26.88;2.75;;;;;;;;;;5007550;28;20053;-66
2022/02/07 04:07:43;;;;;;;23.75;3.08;;;;;;;;;;5013118;28;20057;-66
2022/02/07 04:10:10;;;;;;;13.45;1.65;;;;;;;;;;5021328;28;20461;-66
2022/02/07 04:12:38;;;;;;;19.73;2.00;;;;;;;;;;5017371;28;20046;-66
2022/02/07 04:15:08;;;;;;;;;;;;;;;;;;5031709;28;20135;-66
2022/02/07 04:17:36;;;;;;;16.33;2.05;;;;;;;;;;5039460;28;19924;-66
2022/02/07 04:20:03;;;;;;;11.30;1.52;;;;;;;;;;5032059;28;20428;-67
2022/02/07 04:22:30;;;;;;;21.15;2.63;;;;;;;;;;5039927;28;20052;-66
2022/02/07 04:24:56;;;;;;;20.00;2.47;;;;;;;;;;5031132;28;20433;-66
2022/02/07 04:27:23;;;;;;;19.33;2.38;;;;;;;;;;5035150;28;20049;-65
2022/02/07 04:29:49;;;;;;;18.27;2.50;;;;;;;;;;5023135;28;20064;-65
2022/02/07 04:32:15;;;;;;;17.88;2.25;;;;;;;;;;5011836;28;20049;-66
2022/02/07 04:34:41;;;;;;;21.65;2.42;;;;;;;;;;5019437;28;20060;-65
2022/02/07 04:37:08;;;;;;;16.58;2.10;;;;;;;;;;5011966;28;20509;-65
2022/02/07 04:39:34;;;;;;;20.40;3.28;;;;;;;;;;5019671;28;20418;-65
2022/02/07 04:42:05;;;;;;;14.65;1.83;;;;;;;;;;5006711;28;20058;-65
2022/02/07 04:44:42;;;;;;;14.30;1.88;;;;;;;;;;5015497;28;20050;-65
2022/02/07 04:47:31;;;;;;;16.15;2.30;;;;;;;;;;5011646;28;20057;-65
2022/02/07 04:52:58;;;;;;;16.83;1.98;;;;;;;;;;5015229;28;20012;-65
2022/02/07 04:58:13;;;;;;;11.55;2.63;;;;;;;;;;5016428;28;20055;-65
2022/02/07 05:03:38;;;;;;;23.40;2.47;;;;;;;;;;5007272;28;20333;-65
2022/02/07 05:14:22;;;;;;;19.48;2.10;;;;;;;;;;5013381;28;20056;-65
2022/02/07 05:16:50;;;;;;;18.33;2.15;;;;;;;;;;4991451;28;20045;-65
2022/02/07 05:19:16;;;;;;;14.20;1.92;;;;;;;;;;5019432;28;20049;-65
2022/02/07 05:21:42;;;;;;;18.23;2.78;;;;;;;;;;5006347;28;20057;-65
2022/02/07 05:24:09;;;;;;;18.33;2.30;;;;;;;;;;5014970;28;20466;-65
2022/02/07 05:26:35;;;;;;;20.17;2.38;;;;;;;;;;5018822;28;20821;-65
2022/02/07 05:29:03;;;;;;;13.45;1.85;;;;;;;;;;5010770;28;20049;-65
2022/02/07 05:31:30;;;;;;;16.80;2.08;;;;;;;;;;5019973;28;20718;-65
2022/02/07 05:33:56;;;;;;;12.25;1.88;;;;;;;;;;5010589;28;20080;-65
2022/02/07 05:36:23;;;;;;;12.30;2.38;;;;;;;;;;5014494;28;20045;-65
2022/02/07 05:38:53;;;;;;;19.98;2.55;;;;;;;;;;5006305;28;20506;-65
2022/02/07 05:41:20;;;;;;;17.45;2.25;;;;;;;;;;5018515;28;20054;-65
2022/02/07 05:43:49;;;;;;;27.88;3.72;;;;;;;;;;5019482;28;20467;-65
2022/02/07 05:46:15;;;;;;;16.13;3.00;;;;;;;;;;5010789;28;20053;-65
2022/02/07 05:48:42;;;;;;;23.77;2.80;;;;;;;;;;5018431;28;20049;-65
2022/02/07 05:51:08;;;;;;;18.73;2.67;;;;;;;;;;5007912;28;20381;-65
2022/02/07 05:53:35;;;;;;;20.25;3.30;;;;;;;;;;5026606;28;20068;-65
2022/02/07 05:56:01;;;;;;;14.23;2.38;;;;;;;;;;5033452;28;20060;-65
2022/02/07 05:58:28;;;;;;;20.50;2.75;;;;;;;;;;5042830;28;20045;-65
2022/02/07 06:00:54;;;;;;;21.95;2.22;;;;;;;;;;5026350;28;20341;-65
2022/02/07 06:03:21;;;;;;;19.13;2.78;;;;;;;;;;5012124;28;20429;-65
2022/02/07 06:05:49;;;;;;;19.42;2.25;;;;;;;;;;5017036;28;20102;-65
2022/02/07 06:08:16;;;;;;;19.88;3.05;;;;;;;;;;5014982;28;20060;-65
2022/02/07 06:10:44;;;;;;;17.15;2.90;;;;;;;;;;5019526;28;20057;-65
2022/02/07 06:13:11;;;;;;;15.45;2.25;;;;;;;;;;5013616;28;20573;-65
2022/02/07 06:15:37;;;;;;;12.52;2.33;;;;;;;;;;5020435;28;20049;-65
2022/02/07 06:18:04;;;;;;;20.20;2.53;;;;;;;;;;5017404;28;20428;-65
2022/02/07 06:20:30;;;;;;;19.60;2.30;;;;;;;;;;5008611;28;20042;-65
2022/02/07 06:22:57;;;;;;;15.02;2.58;;;;;;;;;;5016310;28;20045;-65
2022/02/07 06:25:23;;;;;;;24.10;2.90;;;;;;;;;;5013093;28;20037;-65
2022/02/07 06:27:51;;;;;;;15.93;2.35;;;;;;;;;;5021807;28;20049;-65
2022/02/07 06:30:18;;;;;;;15.25;2.70;;;;;;;;;;5011071;28;20053;-65
2022/02/07 06:32:44;;;;;;;23.40;2.88;;;;;;;;;;5014039;28;20514;-65
2022/02/07 06:35:10;;;;;;;17.15;3.08;;;;;;;;;;5018692;28;20057;-65
2022/02/07 06:37:37;;;;;;;18.33;2.85;;;;;;;;;;5013456;28;20617;-65
2022/02/07 06:40:05;;;;;;;13.98;2.13;;;;;;;;;;5021025;28;20346;-65
2022/02/07 06:42:31;;;;;;;22.17;2.85;;;;;;;;;;5013449;28;20727;-65
2022/02/07 06:44:57;;;;;;;16.67;2.45;;;;;;;;;;5018106;28;20049;-65
2022/02/07 06:47:24;;;;;;;17.45;2.28;;;;;;;;;;5007410;28;20057;-65
2022/02/07 06:49:50;;;;;;;29.20;3.08;;;;;;;;;;5021685;28;20451;-65
2022/02/07 06:52:17;;;;;;;14.85;2.58;;;;;;;;;;5014318;28;20046;-65
2022/02/07 06:54:43;;;;;;;23.83;3.25;;;;;;;;;;5012487;28;20056;-65
2022/02/07 06:57:09;;;;;;;24.10;3.22;;;;;;;;;;5020137;28;20042;-65
2022/02/07 06:59:40;;;;;;;23.30;2.30;;;;;;;;;;5005613;28;20057;-65
2022/02/07 07:02:08;;;;;;;16.80;2.08;;;;;;;;;;5016889;28;20057;-65
2022/02/07 07:04:34;;;;;;;15.82;2.20;;;;;;;;;;5013463;28;20611;-65
2022/02/07 07:07:00;;;;;;;18.80;2.70;;;;;;;;;;5021532;28;20045;-65
2022/02/07 07:09:29;;;;;;;19.50;2.35;;;;;;;;;;5017764;28;20080;-65
2022/02/07 07:12:02;;;;;;;24.92;3.13;;;;;;;;;;5012065;28;20431;-66
2022/02/07 07:14:43;;;;;;;17.15;3.53;;;;;;;;;;5012879;28;20339;-64
2022/02/07 07:17:09;;;;;;;24.20;2.65;;;;;;;;;;5009314;28;20045;-65
2022/02/07 07:19:41;;;;;;;21.27;2.67;;;;;;;;;;5021317;28;20160;-64
2022/02/07 07:22:07;;;;;;;18.35;2.90;;;;;;;;;;5023533;28;20512;-64
2022/02/07 07:24:36;;;;;;;20.92;2.88;;;;;;;;;;5034853;28;20042;-64
2022/02/07 07:27:03;;;;;;;11.57;2.25;;;;;;;;;;5008561;28;20045;-65
2022/02/07 07:29:34;;;;;;;20.40;3.42;;;;;;;;;;5016440;28;20072;-64
2022/02/07 07:32:03;;;;;;;24.48;2.75;;;;;;;;;;5020793;28;20045;-64
2022/02/07 07:34:31;;;;;;;24.35;3.13;;;;;;;;;;5013361;28;20454;-64
2022/02/07 07:36:57;;;;;;;21.35;3.17;;;;;;;;;;5021088;28;20075;-64
2022/02/07 07:39:24;;;;;;;14.73;2.47;;;;;;;;;;5012509;28;20053;-64
2022/02/07 07:41:52;;;;;;;17.35;2.63;;;;;;;;;;5015996;28;20045;-64
2022/02/07 07:44:22;;;;;;;19.17;2.55;;;;;;;;;;5010851;28;20045;-64
2022/02/07 07:46:54;;;;;;;19.48;3.40;;;;;;;;;;5019509;28;20473;-64
2022/02/07 07:49:30;;;;;;;23.75;3.53;;;;;;;;;;5021538;28;20049;-64
2022/02/07 07:52:03;;;;;;;14.82;2.63;;;;;;;;;;5023586;28;20072;-64
2022/02/07 08:02:31;;;;;;;19.45;3.42;;;;;;;;;;5011602;28;20168;-64
2022/02/07 08:04:59;;;;;;;12.95;2.92;;;;;;;;;;5019887;28;20061;-64
2022/02/07 08:07:31;;;;;;;23.30;2.67;;;;;;;;;;5004811;28;20049;-65
2022/02/07 08:12:26;;;;;;;14.05;2.55;;;;;;;;;;5020182;28;20418;-65
2022/02/07 08:14:53;;;;;;;20.65;2.78;;;;;;;;;;5010219;28;20083;-65
2022/02/07 08:17:27;;;;;;;26.65;3.85;;;;;;;;;;5020753;28;20047;-65
2022/02/07 08:19:54;;;;;;;18.85;3.22;;;;;;;;;;5030668;28;20577;-65
2022/02/07 08:22:23;;;;;;;18.58;3.90;;;;;;;;;;5035159;28;20053;-65
2022/02/07 08:24:55;;;;;;;22.30;3.10;;;;;;;;;;5033726;28;20479;-65
2022/02/07 08:27:23;;;;;;;14.52;2.83;;;;;;;;;;5040917;28;20057;-64
2022/02/07 08:29:50;;;;;;;19.38;2.60;;;;;;;;;;5029439;28;20395;-65
2022/02/07 08:32:16;;;;;;;27.25;3.17;;;;;;;;;;5013063;28;20064;-65
2022/02/07 08:34:43;;;;;;;25.08;4.05;;;;;;;;;;5015661;28;20049;-65
2022/02/07 08:37:09;;;;;;;18.52;2.50;;;;;;;;;;5007647;28;20053;-64
2022/02/07 08:39:36;;;;;;;18.30;3.20;;;;;;;;;;5019942;28;20052;-65
2022/02/07 08:42:02;;;;;;;21.48;3.25;;;;;;;;;;5011087;28;20081;-64
2022/02/07 08:44:29;;;;;;;25.15;3.40;;;;;;;;;;5002240;28;20455;-64
2022/02/07 08:46:55;;;;;;;19.20;2.83;;;;;;;;;;5016681;28;20140;-64
2022/02/07 08:49:22;;;;;;;20.65;3.08;;;;;;;;;;5022597;28;20072;-65
2022/02/07 08:51:49;;;;;;;18.23;3.03;;;;;;;;;;5029883;28;20042;-64
2022/02/07 08:54:21;;;;;;;23.65;3.08;;;;;;;;;;5012535;28;20358;-65
2022/02/07 08:57:15;;;;;;;25.02;3.80;;;;;;;;;;5020516;28;20056;-64
2022/02/07 08:59:43;;;;;;;15.45;2.78;;;;;;;;;;5012005;28;20049;-65
2022/02/07 09:02:21;;;;;;;25.02;3.03;;;;;;;;;;5015032;28;20053;-65
2022/02/07 09:05:15;;;;;;;19.30;3.17;;;;;;;;;;5006998;28;20049;-65
2022/02/07 09:07:49;;;;;;;22.40;2.53;;;;;;;;;;5019566;28;20053;-65
2022/02/07 09:10:15;;;;;;;24.45;3.45;;;;;;;;;;5012404;28;20088;-65
2022/02/07 09:12:45;;;;;;;22.08;3.13;;;;;;;;;;5018731;28;20431;-64
2022/02/07 09:18:04;;;;;;;24.50;3.22;;;;;;;;;;5003255;28;20064;-65
2022/02/07 09:20:31;;;;;;;23.08;2.65;;;;;;;;;;5019196;28;20059;-65
2022/02/07 09:22:58;;;;;;;17.43;2.50;;;;;;;;;;5009684;28;20831;-65
2022/02/07 09:25:25;;;;;;;22.45;3.50;;;;;;;;;;5024130;28;20287;-65
2022/02/07 09:27:51;;;;;;;22.73;2.80;;;;;;;;;;5016851;28;20592;-65
2022/02/07 09:30:17;;;;;;;20.83;2.90;;;;;;;;;;5019120;28;20065;-65
2022/02/07 09:32:45;;;;;;;24.00;2.90;;;;;;;;;;5019108;28;20056;-65
2022/02/07 09:35:12;;;;;;;27.55;3.72;;;;;;;;;;5017501;28;20064;-66
2022/02/07 09:37:38;;;;;;;21.35;3.33;;;;;;;;;;5024905;28;20151;-67
2022/02/07 09:40:05;;;;;;;21.20;3.22;;;;;;;;;;5018046;28;20060;-67
2022/02/07 09:42:33;;;;;;;33.65;4.53;;;;;;;;;;5005758;28;20074;-67
2022/02/07 09:45:10;;;;;;;20.08;2.92;;;;;;;;;;4991851;28;20053;-67
2022/02/07 09:47:37;;;;;;;18.35;3.25;;;;;;;;;;5018466;28;20083;-67
2022/02/07 09:50:06;;;;;;;19.90;3.08;;;;;;;;;;5025207;28;20056;-66
2022/02/07 09:52:33;;;;;;;33.22;3.75;;;;;;;;;;5017227;28;20056;-64
2022/02/07 09:54:59;;;;;;;16.42;3.35;;;;;;;;;;5021736;28;20050;-67
2022/02/07 09:57:25;;;;;;;21.95;4.63;;;;;;;;;;5013298;28;20275;-64
2022/02/07 09:59:52;;;;;;;19.40;2.80;;;;;;;;;;5016587;28;20057;-64
2022/02/07 10:02:33;;;;;;;14.55;2.33;;;;;;;;;;5015838;28;20046;-64
2022/02/07 10:05:04;;;;;;;16.73;2.58;;;;;;;;;;5025877;28;20045;-66
2022/02/07 10:07:41;;;;;;;19.85;3.38;;;;;;;;;;5016900;28;20061;-65
2022/02/07 10:10:20;;;;;;;25.33;3.38;;;;;;;;;;5023933;28;20060;-64
2022/02/07 10:16:00;;;;;;;18.20;2.40;;;;;;;;;;4976320;28;20050;-64
2022/02/07 10:18:44;;;;;;;18.75;2.35;;;;;;;;;;4981994;28;20050;-66
2022/02/07 10:21:31;;;;;;;23.48;3.05;;;;;;;;;;4988326;28;20073;-67
2022/02/07 10:35:47;;;;;;;21.13;2.70;;;;;;;;;;5023143;28;20049;-67
2022/02/07 10:46:11;;;;;;;22.17;2.70;;;;;;;;;;5022651;28;20132;-67
2022/02/07 10:48:39;;;;;;;20.67;2.97;;;;;;;;;;5014862;28;20502;-64
2022/02/07 10:51:08;;;;;;;17.23;2.40;;;;;;;;;;5022462;28;20053;-64
2022/02/07 10:53:38;;;;;;;20.23;2.38;;;;;;;;;;5013120;28;20048;-64
2022/02/07 10:56:05;;;;;;;15.65;2.28;;;;;;;;;;5018006;28;20055;-64
2022/02/07 10:58:32;;;;;;;16.90;2.28;;;;;;;;;;5023671;28;20045;-64
2022/02/07 11:01:07;;;;;;;18.10;2.38;;;;;;;;;;5012805;28;20053;-65
2022/02/07 11:04:19;;;;;;;14.35;2.45;;;;;;;;;;5003976;28;20383;-67
2022/02/07 11:06:33;;;;;;;21.50;2.97;;;;;;;;;;4996404;28;20073;-65
2022/02/07 11:11:45;;;;;;;11.93;1.85;;;;;;;;;;5014626;28;20061;-67
2022/02/07 11:14:36;;;;;;;19.45;2.20;;;;;;;;;;5012712;28;20054;-65
2022/02/07 11:28:02;;;;;;;18.50;2.92;;;;;;;;;;5016564;28;20063;-66
2022/02/07 11:30:34;;;;;;;14.43;2.38;;;;;;;;;;5022613;28;20053;-66
2022/02/07 11:33:01;;;;;;;13.50;2.50;;;;;;;;;;5022929;28;20057;-65
2022/02/07 11:35:32;;;;;;;13.88;2.08;;;;;;;;;;5012460;28;20049;-66
2022/02/07 11:38:01;;;;;;;14.38;2.90;;;;;;;;;;5018224;28;20059;-67
2022/02/07 11:40:57;;;;;;;19.15;2.92;;;;;;;;;;5015833;28;20057;-66
2022/02/07 11:43:24;;;;;;;13.43;2.15;;;;;;;;;;5004999;28;20053;-67
2022/02/07 11:45:53;;;;;;;13.50;1.90;;;;;;;;;;5015343;28;20053;-66
2022/02/07 11:48:31;;;;;;;12.77;2.35;;;;;;;;;;5017834;28;20471;-66
2022/02/07 11:50:59;;;;;;;17.23;2.80;;;;;;;;;;5009993;28;20056;-66
2022/02/07 11:53:52;;;;;;;13.45;2.15;;;;;;;;;;5041265;28;20056;-66
2022/02/07 11:56:23;;;;;;;10.82;1.60;;;;;;;;;;5038634;28;20048;-67
2022/02/07 11:59:01;;;;;;;12.73;1.65;;;;;;;;;;5025803;28;20501;-66
2022/02/07 12:01:46;;;;;;;21.17;2.40;;;;;;;;;;5014787;28;20049;-67
2022/02/07 12:04:23;;;;;;;15.38;2.25;;;;;;;;;;5009028;28;20049;-66
2022/02/07 12:07:02;;;;;;;17.70;2.55;;;;;;;;;;5019509;28;20415;-67
2022/02/07 12:09:30;;;;;;;10.63;2.10;;;;;;;;;;5015096;28;20072;-66
2022/02/07 12:11:56;;;;;;;13.13;1.83;;;;;;;;;;5021127;28;20057;-67
2022/02/07 12:14:30;;;;;;;18.95;2.00;;;;;;;;;;5013417;28;20155;-65
2022/02/07 12:16:57;;;;;;;12.05;1.75;;;;;;;;;;5016658;28;20427;-65
2022/02/07 12:19:40;;;;;;;10.95;1.85;;;;;;;;;;5016246;28;20049;-65
2022/02/07 12:22:14;;;;;;;17.05;1.80;;;;;;;;;;5021293;28;20064;-67
2022/02/07 12:24:54;;;;;;;14.63;1.80;;;;;;;;;;5022547;28;20061;-66
2022/02/07 12:27:21;;;;;;;11.05;2.20;;;;;;;;;;5011803;28;20714;-66
2022/02/07 12:30:05;;;;;;;17.08;2.25;;;;;;;;;;5019170;28;20051;-65
2022/02/07 12:32:32;;;;;;;16.27;1.83;;;;;;;;;;5010338;28;20045;-66
2022/02/07 12:34:59;;;;;;;13.00;1.65;;;;;;;;;;5020904;28;21031;-66
2022/02/07 12:37:26;;;;;;;11.10;1.83;;;;;;;;;;5014063;28;20539;-66
2022/02/07 12:39:52;;;;;;;13.50;1.90;;;;;;;;;;5021552;28;20053;-66
2022/02/07 12:42:20;;;;;;;19.33;2.10;;;;;;;;;;5020251;28;20072;-66
2022/02/07 12:44:46;;;;;;;15.93;1.60;;;;;;;;;;5008297;28;20331;-66
2022/02/07 12:47:14;;;;;;;14.32;1.70;;;;;;;;;;5013711;28;20050;-66
2022/02/07 12:49:47;;;;;;;17.88;2.13;;;;;;;;;;5011245;28;20063;-66
2022/02/07 12:52:13;;;;;;;11.38;1.50;;;;;;;;;;5021814;28;20135;-66
2022/02/07 12:54:40;;;;;;;12.25;1.48;;;;;;;;;;5012566;28;20051;-66
2022/02/07 12:57:06;;;;;;;11.55;1.30;;;;;;;;;;5020192;28;20514;-67
2022/02/07 12:59:32;;;;;;;21.80;2.63;;;;;;;;;;5014381;28;20045;-66
2022/02/07 13:01:59;;;;;;;12.93;1.70;;;;;;;;;;5012839;28;20424;-66
2022/02/07 13:04:25;;;;;;;5.93;0.98;;;;;;;;;;5019607;28;20526;-66
2022/02/07 13:06:55;;;;;;;13.95;2.08;;;;;;;;;;5011010;28;20101;-66
2022/02/07 13:09:26;;;;;;;10.52;1.50;;;;;;;;;;5017832;28;20060;-66
2022/02/07 13:14:50;;;;;;;10.32;1.58;;;;;;;;;;4998200;28;20458;-66
2022/02/07 13:17:22;;;;;;;10.02;1.38;;;;;;;;;;5026421;28;20061;-66
2022/02/07 13:19:49;;;;;;;11.70;1.70;;;;;;;;;;5020163;28;20053;-66
2022/02/07 13:22:17;;;;;;;6.28;1.30;;;;;;;;;;5017652;28;20050;-66
2022/02/07 13:24:45;;;;;;;14.20;2.22;;;;;;;;;;5010707;28;20057;-66
2022/02/07 13:27:12;;;;;;;14.77;1.80;;;;;;;;;;5016022;28;20059;-66
2022/02/07 13:29:46;;;;;;;12.20;1.73;;;;;;;;;;5012028;28;20564;-66
2022/02/07 13:32:14;;;;;;;13.45;1.80;;;;;;;;;;5021383;28;20378;-66
2022/02/07 13:34:41;;;;;;;13.73;1.95;;;;;;;;;;5006503;28;20056;-65
2022/02/07 13:37:16;;;;;;;10.75;1.70;;;;;;;;;;5017892;28;20053;-65
2022/02/07 13:39:52;;;;;;;11.10;2.30;;;;;;;;;;5013691;28;20046;-66
2022/02/07 13:42:22;;;;;;;14.95;2.00;;;;;;;;;;5004567;28;20056;-66
2022/02/07 13:44:49;;;;;;;12.18;1.65;;;;;;;;;;5017432;28;20071;-66
2022/02/07 13:47:15;;;;;;;8.25;1.63;;;;;;;;;;4993763;28;20050;-65
2022/02/07 13:49:51;;;;;;;15.55;1.95;;;;;;;;;;5018821;28;20492;-66
2022/02/07 13:52:18;;;;;;;10.18;1.60;;;;;;;;;;5011692;28;20045;-65
2022/02/07 13:54:44;;;;;;;11.70;2.08;;;;;;;;;;5014853;28;20214;-66
2022/02/07 13:57:11;;;;;;;12.43;1.73;;;;;;;;;;5016888;28;20061;-66
2022/02/07 13:59:38;;;;;;;12.23;1.40;;;;;;;;;;5015701;28;20512;-66
2022/02/07 14:02:24;;;;;;;12.85;1.98;;;;;;;;;;5018293;28;20045;-66
2022/02/07 14:04:52;;;;;;;15.63;2.97;;;;;;;;;;5008593;28;20042;-66
2022/02/07 14:07:19;;;;;;;15.27;1.85;;;;;;;;;;5010722;28;20273;-65
2022/02/07 14:09:45;;;;;;;8.02;1.50;;;;;;;;;;5005451;28;20144;-66
2022/02/07 14:12:13;;;;;;;13.15;1.52;;;;;;;;;;5022693;28;20437;-66
2022/02/07 14:14:40;;;;;;;12.32;2.28;;;;;;;;;;5016982;28;20828;-65
2022/02/07 14:17:07;;;;;;;9.07;1.73;;;;;;;;;;5024231;28;20513;-66
2022/02/07 14:19:34;;;;;;;9.60;1.70;;;;;;;;;;5025476;28;20052;-66
2022/02/07 14:22:00;;;;;;;10.45;1.52;;;;;;;;;;5009975;28;20490;-66
2022/02/07 14:24:27;;;;;;;12.07;1.50;;;;;;;;;;5021355;28;20053;-66
2022/02/07 14:27:14;;;;;;;12.82;2.00;;;;;;;;;;5016531;28;20053;-66
2022/02/07 14:29:40;;;;;;;13.50;2.17;;;;;;;;;;5021178;28;20049;-66
2022/02/07 14:32:18;;;;;;;11.57;1.88;;;;;;;;;;5015903;28;20056;-66
2022/02/07 14:34:44;;;;;;;13.75;2.85;;;;;;;;;;5022693;28;20049;-66
2022/02/07 14:37:11;;;;;;;8.32;1.40;;;;;;;;;;5021639;28;20045;-66
2022/02/07 14:39:38;;;;;;;7.30;1.00;;;;;;;;;;5014646;28;20050;-66
2022/02/07 14:42:07;;;;;;;7.68;1.50;;;;;;;;;;5024245;28;20045;-66
2022/02/07 14:44:42;;;;;;;12.77;1.52;;;;;;;;;;5013408;28;20046;-66
2022/02/07 14:47:26;;;;;;;11.02;1.52;;;;;;;;;;4999002;28;20140;-66
2022/02/07 14:49:53;;;;;;;5.53;1.08;;;;;;;;;;5015292;28;20049;-66
2022/02/07 14:52:19;;;;;;;10.63;1.30;;;;;;;;;;5020125;28;20050;-66
2022/02/07 14:54:45;;;;;;;14.90;2.40;;;;;;;;;;5013306;28;20056;-66
2022/02/07 14:57:12;;;;;;;14.13;2.35;;;;;;;;;;5022066;28;20585;-66
2022/02/07 14:59:39;;;;;;;10.32;1.50;;;;;;;;;;4995364;28;20048;-66
2022/02/07 15:02:05;;;;;;;13.57;1.52;;;;;;;;;;5008792;28;20037;-66
2022/02/07 15:04:31;;;;;;;13.30;1.60;;;;;;;;;;5022719;28;20049;-66
2022/02/07 15:06:58;;;;;;;11.80;2.33;;;;;;;;;;5011843;28;20064;-66
2022/02/07 15:09:25;;;;;;;7.47;1.30;;;;;;;;;;5018683;28;20042;-66
2022/02/07 15:11:52;;;;;;;12.10;1.60;;;;;;;;;;5016213;28;20074;-65
2022/02/07 15:14:18;;;;;;;15.02;1.60;;;;;;;;;;5016120;28;20045;-65
2022/02/07 15:16:45;;;;;;;7.03;1.15;;;;;;;;;;5017039;28;20414;-66
2022/02/07 15:19:11;;;;;;;14.77;2.80;;;;;;;;;;5015011;28;20049;-66
2022/02/07 15:21:37;;;;;;;12.07;2.15;;;;;;;;;;5030040;28;20056;-66
2022/02/07 15:24:04;;;;;;;12.48;1.70;;;;;;;;;;5034983;28;20049;-66
2022/02/07 15:26:30;;;;;;;11.05;1.83;;;;;;;;;;5034515;28;20045;-66
2022/02/07 15:28:59;;;;;;;17.40;2.47;;;;;;;;;;5015845;28;20172;-66
2022/02/07 15:31:30;;;;;;;13.40;2.10;;;;;;;;;;5014961;28;20053;-66
2022/02/07 15:34:00;;;;;;;9.85;1.92;;;;;;;;;;5019027;28;20136;-66
2022/02/07 15:36:27;;;;;;;7.10;1.40;;;;;;;;;;5011930;28;20056;-66
2022/02/07 15:38:54;;;;;;;13.40;1.80;;;;;;;;;;5019591;28;20053;-67
2022/02/07 15:41:20;;;;;;;18.25;2.28;;;;;;;;;;5010320;28;20694;-67
2022/02/07 15:43:47;;;;;;;9.70;1.83;;;;;;;;;;5017464;28;20061;-67
2022/02/07 15:46:13;;;;;;;10.82;2.20;;;;;;;;;;5021474;28;20423;-67
2022/02/07 15:48:40;;;;;;;11.80;1.60;;;;;;;;;;5024445;28;20535;-67
2022/02/07 15:51:08;;;;;;;6.00;1.13;;;;;;;;;;5032740;28;20053;-67
2022/02/07 15:53:35;;;;;;;;;;;;;;;;;;5014201;28;20056;-67
2022/02/07 15:56:02;;;;;;;13.15;2.22;;;;;;;;;;5016901;28;19925;-67
2022/02/07 15:58:28;;;;;;;8.93;1.52;;;;;;;;;;5011061;28;20045;-67
2022/02/07 16:00:54;;;;;;;17.23;2.67;;;;;;;;;;5022212;28;20048;-67
2022/02/07 16:03:21;;;;;;;14.13;1.65;;;;;;;;;;5021727;28;20080;-67
2022/02/07 16:05:47;;;;;;;6.85;1.17;;;;;;;;;;5015470;28;20049;-67
2022/02/07 16:08:13;;;;;;;12.65;1.55;;;;;;;;;;5022877;28;20145;-67
2022/02/07 16:10:40;;;;;;;10.40;1.73;;;;;;;;;;5008136;28;20746;-67
2022/02/07 16:15:43;;;;;;;14.82;2.05;;;;;;;;;;5013532;28;20084;-67
2022/02/07 16:18:11;;;;;;;8.95;1.35;;;;;;;;;;5022278;28;20049;-67
2022/02/07 16:20:39;;;;;;;9.75;1.83;;;;;;;;;;5017223;28;20045;-67
2022/02/07 16:23:09;;;;;;;10.95;1.67;;;;;;;;;;5017474;28;20138;-67
2022/02/07 16:25:39;;;;;;;5.00;1.13;;;;;;;;;;5017696;28;20049;-67
2022/02/07 16:28:07;;;;;;;10.60;1.77;;;;;;;;;;5014902;28;20141;-67
2022/02/07 16:30:34;;;;;;;3.92;1.23;;;;;;;;;;5020525;28;20060;-67
2022/02/07 16:33:01;;;;;;;6.90;1.42;;;;;;;;;;5011922;28;20054;-67
2022/02/07 16:35:28;;;;;;;8.02;1.70;;;;;;;;;;5020358;28;20172;-67
2022/02/07 16:37:54;;;;;;;11.13;1.83;;;;;;;;;;5011996;28;20057;-67
2022/02/07 16:40:20;;;;;;;11.63;1.98;;;;;;;;;;5020031;28;20141;-67
2022/02/07 16:42:47;;;;;;;11.20;1.95;;;;;;;;;;5021001;28;20469;-67
2022/02/07 16:45:23;;;;;;;8.90;1.33;;;;;;;;;;5012627;28;20049;-67
2022/02/07 16:47:49;;;;;;;9.23;1.45;;;;;;;;;;5016493;28;20116;-67
2022/02/07 16:50:16;;;;;;;10.05;2.10;;;;;;;;;;5010055;28;20056;-67
2022/02/07 16:52:44;;;;;;;10.55;1.85;;;;;;;;;;5020985;28;20049;-67
2022/02/07 16:55:11;;;;;;;12.40;2.03;;;;;;;;;;5018039;28;20711;-67
2022/02/07 16:57:38;;;;;;;10.82;1.77;;;;;;;;;;5021392;28;20206;-67
2022/02/07 17:00:05;;;;;;;13.77;1.55;;;;;;;;;;5022411;28;20049;-67
2022/02/07 17:02:32;;;;;;;9.57;1.58;;;;;;;;;;5008860;28;20453;-67
2022/02/07 17:04:58;;;;;;;11.25;1.48;;;;;;;;;;5016267;28;20438;-67
2022/02/07 17:07:24;;;;;;;7.63;1.60;;;;;;;;;;5012569;28;20046;-67
2022/02/07 17:09:51;;;;;;;7.07;1.63;;;;;;;;;;5019646;28;20049;-67